sensor_id;sensor_type;location;lat;lon;timestamp;pressure;altitude;pressure_sealevel;temperature;humidity
22283;BME280;11310;51.528;21.204;2024-03-02T00:01:25;99673.06;;;7.47;100.00
22283;BME280;11310;51.528;21.204;2024-03-02T00:03:54;99672.22;;;7.47;100.00
22283;BME280;11310;51.528;21.204;2024-03-02T00:06:23;99658.50;;;7.42;100.00
22283;BME280;11310;51.528;21.204;2024-03-02T00:08:57;99667.13;;;7.44;100.00
22283;BME280;11310;51.528;21.204;2024-03-02T00:11:26;99675.84;;;7.43;100.00
22283;BME280;11310;51.528;21.204;2024-03-02T00:13:57;99668.00;;;7.43;100.00
22283;BME280;11310;51.528;21.204;2024-03-02T00:16:30;99667.13;;;7.44;100.00
22283;BME280;11310;51.528;21.204;2024-03-02T00:19:01;99657.53;;;7.44;100.00
22283;BME280;11310;51.528;21.204;2024-03-02T00:21:31;99668.94;;;7.42;100.00
22283;BME280;11310;51.528;21.204;2024-03-02T00:24:01;99667.28;;;7.39;100.00
22283;BME280;11310;51.528;21.204;2024-03-02T00:26:35;99667.34;;;7.38;100.00
22283;BME280;11310;51.528;21.204;2024-03-02T00:29:05;99661.28;;;7.37;100.00
22283;BME280;11310;51.528;21.204;2024-03-02T00:31:34;99669.19;;;7.36;100.00
22283;BME280;11310;51.528;21.204;2024-03-02T00:34:04;99667.50;;;7.35;100.00
22283;BME280;11310;51.528;21.204;2024-03-02T00:36:34;99652.81;;;7.32;100.00
22283;BME280;11310;51.528;21.204;2024-03-02T00:39:03;99664.06;;;7.33;100.00
22283;BME280;11310;51.528;21.204;2024-03-02T00:41:35;99664.13;;;7.31;100.00
22283;BME280;11310;51.528;21.204;2024-03-02T00:44:07;99663.34;;;7.29;100.00
22283;BME280;11310;51.528;21.204;2024-03-02T00:46:40;99658.19;;;7.28;100.00
22283;BME280;11310;51.528;21.204;2024-03-02T00:49:15;99659.97;;;7.27;100.00
22283;BME280;11310;51.528;21.204;2024-03-02T00:51:49;99659.03;;;7.28;100.00
22283;BME280;11310;51.528;21.204;2024-03-02T00:54:19;99660.63;;;7.32;100.00
22283;BME280;11310;51.528;21.204;2024-03-02T00:56:51;99664.06;;;7.33;100.00
22283;BME280;11310;51.528;21.204;2024-03-02T00:59:24;99663.09;;;7.35;100.00
22283;BME280;11310;51.528;21.204;2024-03-02T01:01:53;99662.25;;;7.35;100.00
22283;BME280;11310;51.528;21.204;2024-03-02T01:04:22;99658.75;;;7.36;100.00
22283;BME280;11310;51.528;21.204;2024-03-02T01:06:50;99663.16;;;7.34;100.00
22283;BME280;11310;51.528;21.204;2024-03-02T01:09:19;99660.69;;;7.31;100.00
22283;BME280;11310;51.528;21.204;2024-03-02T01:11:48;99654.66;;;7.29;100.00
22283;BME280;11310;51.528;21.204;2024-03-02T01:14:16;99659.97;;;7.27;100.00
22283;BME280;11310;51.528;21.204;2024-03-02T01:16:46;99652.28;;;7.23;100.00
22283;BME280;11310;51.528;21.204;2024-03-02T01:19:15;99646.31;;;7.21;100.00
22283;BME280;11310;51.528;21.204;2024-03-02T01:21:43;99647.19;;;7.20;100.00
22283;BME280;11310;51.528;21.204;2024-03-02T01:24:12;99649.97;;;7.15;100.00
22283;BME280;11310;51.528;21.204;2024-03-02T01:26:43;99649.31;;;7.10;100.00
22283;BME280;11310;51.528;21.204;2024-03-02T01:29:12;99656.63;;;7.01;100.00
22283;BME280;11310;51.528;21.204;2024-03-02T01:31:41;99652.41;;;6.97;100.00
22283;BME280;11310;51.528;21.204;2024-03-02T01:34:11;99649.03;;;6.95;100.00
22283;BME280;11310;51.528;21.204;2024-03-02T01:36:40;99644.72;;;6.94;100.00
22283;BME280;11310;51.528;21.204;2024-03-02T01:39:08;99639.69;;;6.89;100.00
22283;BME280;11310;51.528;21.204;2024-03-02T01:41:37;99640.59;;;6.88;100.00
22283;BME280;11310;51.528;21.204;2024-03-02T01:44:06;99632.00;;;6.86;100.00
22283;BME280;11310;51.528;21.204;2024-03-02T01:46:35;99631.91;;;6.88;100.00
22283;BME280;11310;51.528;21.204;2024-03-02T01:49:06;99622.38;;;6.87;100.00
22283;BME280;11310;51.528;21.204;2024-03-02T01:51:36;99626.81;;;6.85;100.00
22283;BME280;11310;51.528;21.204;2024-03-02T01:54:05;99631.22;;;6.83;100.00
22283;BME280;11310;51.528;21.204;2024-03-02T01:56:34;99621.72;;;6.82;100.00
22283;BME280;11310;51.528;21.204;2024-03-02T01:59:03;99620.06;;;6.79;100.00
22283;BME280;11310;51.528;21.204;2024-03-02T02:01:31;99614.25;;;6.73;100.00
22283;BME280;11310;51.528;21.204;2024-03-02T02:04:01;99617.09;;;6.67;100.00
22283;BME280;11310;51.528;21.204;2024-03-02T02:06:30;99612.88;;;6.63;100.00
22283;BME280;11310;51.528;21.204;2024-03-02T02:09:00;99612.06;;;6.61;100.00
22283;BME280;11310;51.528;21.204;2024-03-02T02:11:29;99607.00;;;6.58;100.00
22283;BME280;11310;51.528;21.204;2024-03-02T02:13:59;99607.91;;;6.57;100.00
22283;BME280;11310;51.528;21.204;2024-03-02T02:16:27;99609.59;;;6.58;100.00
22283;BME280;11310;51.528;21.204;2024-03-02T02:18:57;99614.84;;;6.56;100.00
22283;BME280;11310;51.528;21.204;2024-03-02T02:21:27;99612.25;;;6.56;100.00
22283;BME280;11310;51.528;21.204;2024-03-02T02:23:56;99604.34;;;6.59;100.00
22283;BME280;11310;51.528;21.204;2024-03-02T02:26:24;99601.66;;;6.61;100.00
22283;BME280;11310;51.528;21.204;2024-03-02T02:28:54;99598.16;;;6.62;100.00
22283;BME280;11310;51.528;21.204;2024-03-02T02:31:22;99599.97;;;6.60;100.00
22283;BME280;11310;51.528;21.204;2024-03-02T02:33:52;99593.84;;;6.61;100.00
22283;BME280;11310;51.528;21.204;2024-03-02T02:36:23;99602.56;;;6.60;100.00
22283;BME280;11310;51.528;21.204;2024-03-02T02:38:53;99595.56;;;6.62;100.00
22283;BME280;11310;51.528;21.204;2024-03-02T02:41:21;99592.03;;;6.63;100.00
22283;BME280;11310;51.528;21.204;2024-03-02T02:43:50;99595.41;;;6.65;100.00
22283;BME280;11310;51.528;21.204;2024-03-02T02:46:19;99598.94;;;6.64;100.00
22283;BME280;11310;51.528;21.204;2024-03-02T02:48:50;99587.75;;;6.62;100.00
22283;BME280;11310;51.528;21.204;2024-03-02T02:51:20;99593.91;;;6.59;100.00
22283;BME280;11310;51.528;21.204;2024-03-02T02:53:53;99596.53;;;6.59;100.00
22283;BME280;11310;51.528;21.204;2024-03-02T02:56:22;99599.03;;;6.61;100.00
22283;BME280;11310;51.528;21.204;2024-03-02T02:58:52;99589.59;;;6.58;100.00
22283;BME280;11310;51.528;21.204;2024-03-02T03:01:20;99591.41;;;6.56;100.00
22283;BME280;11310;51.528;21.204;2024-03-02T03:03:49;99595.75;;;6.56;100.00
22283;BME280;11310;51.528;21.204;2024-03-02T03:06:19;99595.88;;;6.53;100.00
22283;BME280;11310;51.528;21.204;2024-03-02T03:08:48;99597.69;;;6.51;100.00
22283;BME280;11310;51.528;21.204;2024-03-02T03:11:17;99597.69;;;6.51;100.00
22283;BME280;11310;51.528;21.204;2024-03-02T03:13:46;99589.00;;;6.52;100.00
22283;BME280;11310;51.528;21.204;2024-03-02T03:16:15;99594.19;;;6.52;100.00
22283;BME280;11310;51.528;21.204;2024-03-02T03:18:44;99596.91;;;6.49;100.00
22283;BME280;11310;51.528;21.204;2024-03-02T03:21:12;99583.16;;;6.45;100.00
22283;BME280;11310;51.528;21.204;2024-03-02T03:23:42;99576.22;;;6.44;100.00
22283;BME280;11310;51.528;21.204;2024-03-02T03:26:11;99576.22;;;6.44;100.00
22283;BME280;11310;51.528;21.204;2024-03-02T03:28:41;99578.91;;;6.43;100.00
22283;BME280;11310;51.528;21.204;2024-03-02T03:31:09;99579.88;;;6.40;100.00
22283;BME280;11310;51.528;21.204;2024-03-02T03:33:38;99583.31;;;6.41;100.00
22283;BME280;11310;51.528;21.204;2024-03-02T03:36:07;99571.13;;;6.41;100.00
22283;BME280;11310;51.528;21.204;2024-03-02T03:38:36;99568.41;;;6.44;100.00
22283;BME280;11310;51.528;21.204;2024-03-02T03:41:04;99570.19;;;6.44;100.00
22283;BME280;11310;51.528;21.204;2024-03-02T03:43:33;99578.09;;;6.41;100.00
22283;BME280;11310;51.528;21.204;2024-03-02T03:46:04;99573.84;;;6.38;100.00
22283;BME280;11310;51.528;21.204;2024-03-02T03:48:32;99574.72;;;6.39;100.00
22283;BME280;11310;51.528;21.204;2024-03-02T03:51:01;99558.16;;;6.40;100.00
22283;BME280;11310;51.528;21.204;2024-03-02T03:53:29;99559.84;;;6.41;100.00
22283;BME280;11310;51.528;21.204;2024-03-02T03:55:57;99561.53;;;6.42;100.00
22283;BME280;11310;51.528;21.204;2024-03-02T03:58:25;99566.75;;;6.42;100.00
22283;BME280;11310;51.528;21.204;2024-03-02T04:00:55;99558.88;;;6.43;100.00
22283;BME280;11310;51.528;21.204;2024-03-02T04:03:26;99561.44;;;6.45;100.00
22283;BME280;11310;51.528;21.204;2024-03-02T04:05:54;99557.94;;;6.46;100.00
22283;BME280;11310;51.528;21.204;2024-03-02T04:08:22;99553.59;;;6.46;100.00
22283;BME280;11310;51.528;21.204;2024-03-02T04:10:51;99556.19;;;6.46;100.00
22283;BME280;11310;51.528;21.204;2024-03-02T04:13:19;99556.25;;;6.45;100.00
22283;BME280;11310;51.528;21.204;2024-03-02T04:15:47;99551.81;;;6.47;100.00
22283;BME280;11310;51.528;21.204;2024-03-02T04:18:19;99554.41;;;6.47;100.00
22283;BME280;11310;51.528;21.204;2024-03-02T04:20:49;99554.41;;;6.47;100.00
22283;BME280;11310;51.528;21.204;2024-03-02T04:23:20;99561.34;;;6.48;100.00
22283;BME280;11310;51.528;21.204;2024-03-02T04:25:48;99556.91;;;6.50;100.00
22283;BME280;11310;51.528;21.204;2024-03-02T04:28:19;99550.69;;;6.54;100.00
22283;BME280;11310;51.528;21.204;2024-03-02T04:30:49;99555.94;;;6.52;100.00
22283;BME280;11310;51.528;21.204;2024-03-02T04:33:17;99559.53;;;6.50;100.00
22283;BME280;11310;51.528;21.204;2024-03-02T04:35:46;99565.59;;;6.50;100.00
22283;BME280;11310;51.528;21.204;2024-03-02T04:38:16;99568.16;;;6.52;100.00
22283;BME280;11310;51.528;21.204;2024-03-02T04:40:44;99568.88;;;6.55;100.00
22283;BME280;11310;51.528;21.204;2024-03-02T04:43:12;99568.81;;;6.57;100.00
22283;BME280;11310;51.528;21.204;2024-03-02T04:45:43;99568.69;;;6.60;100.00
22283;BME280;11310;51.528;21.204;2024-03-02T04:48:14;99572.09;;;6.62;100.00
22283;BME280;11310;51.528;21.204;2024-03-02T04:50:42;99579.78;;;6.65;100.00
22283;BME280;11310;51.528;21.204;2024-03-02T04:53:11;99564.16;;;6.65;100.00
22283;BME280;11310;51.528;21.204;2024-03-02T04:55:40;99563.19;;;6.67;100.00
22283;BME280;11310;51.528;21.204;2024-03-02T04:58:28;99562.22;;;6.70;100.00
22283;BME280;11310;51.528;21.204;2024-03-02T05:00:56;99564.78;;;6.71;100.00
22283;BME280;11310;51.528;21.204;2024-03-02T05:03:25;99566.53;;;6.71;100.00
22283;BME280;11310;51.528;21.204;2024-03-02T05:05:54;99573.44;;;6.72;100.00
22283;BME280;11310;51.528;21.204;2024-03-02T05:08:23;99573.44;;;6.72;100.00
22283;BME280;11310;51.528;21.204;2024-03-02T05:10:56;99575.09;;;6.74;100.00
22283;BME280;11310;51.528;21.204;2024-03-02T05:13:45;99577.59;;;6.77;100.00
22283;BME280;11310;51.528;21.204;2024-03-02T05:16:13;99586.25;;;6.78;100.00
22283;BME280;11310;51.528;21.204;2024-03-02T05:18:43;99586.25;;;6.78;100.00
22283;BME280;11310;51.528;21.204;2024-03-02T05:21:12;99596.56;;;6.81;100.00
22283;BME280;11310;51.528;21.204;2024-03-02T05:23:40;99599.16;;;6.81;100.00
22283;BME280;11310;51.528;21.204;2024-03-02T05:26:10;99600.81;;;6.83;100.00
22283;BME280;11310;51.528;21.204;2024-03-02T05:28:40;99611.19;;;6.85;100.00
22283;BME280;11310;51.528;21.204;2024-03-02T05:31:10;99617.19;;;6.87;100.00
22283;BME280;11310;51.528;21.204;2024-03-02T05:33:39;99608.44;;;6.88;100.00
22283;BME280;11310;51.528;21.204;2024-03-02T05:36:08;99610.94;;;6.91;100.00
22283;BME280;11310;51.528;21.204;2024-03-02T05:38:37;99602.16;;;6.93;100.00
22283;BME280;11310;51.528;21.204;2024-03-02T05:41:06;99596.84;;;6.96;100.00
22283;BME280;11310;51.528;21.204;2024-03-02T05:43:36;99603.63;;;7.00;100.00
22283;BME280;11310;51.528;21.204;2024-03-02T05:46:05;99604.47;;;7.01;100.00
22283;BME280;11310;51.528;21.204;2024-03-02T05:48:33;99615.88;;;6.98;100.00
22283;BME280;11310;51.528;21.204;2024-03-02T05:51:03;99613.09;;;7.03;100.00
22283;BME280;11310;51.528;21.204;2024-03-02T05:53:32;99618.31;;;7.03;100.00
22283;BME280;11310;51.528;21.204;2024-03-02T05:56:01;99620.88;;;7.04;100.00
22283;BME280;11310;51.528;21.204;2024-03-02T05:58:31;99628.59;;;7.06;100.00
22283;BME280;11310;51.528;21.204;2024-03-02T06:01:15;99635.53;;;7.07;100.00
22283;BME280;11310;51.528;21.204;2024-03-02T06:03:47;99619.13;;;7.03;100.00
22283;BME280;11310;51.528;21.204;2024-03-02T06:06:16;99619.91;;;7.07;100.00
22283;BME280;11310;51.528;21.204;2024-03-02T06:08:46;99613.72;;;7.09;100.00
22283;BME280;11310;51.528;21.204;2024-03-02T06:11:14;99611.88;;;7.11;100.00
22283;BME280;11310;51.528;21.204;2024-03-02T06:13:43;99608.41;;;7.11;100.00
22283;BME280;11310;51.528;21.204;2024-03-02T06:16:11;99609.22;;;7.13;100.00
22283;BME280;11310;51.528;21.204;2024-03-02T06:18:42;99621.34;;;7.14;100.00
22283;BME280;11310;51.528;21.204;2024-03-02T06:21:11;99610.97;;;7.12;100.00
22283;BME280;11310;51.528;21.204;2024-03-02T06:23:40;99622.31;;;7.11;100.00
22283;BME280;11310;51.528;21.204;2024-03-02T06:26:08;99615.34;;;7.12;100.00
22283;BME280;11310;51.528;21.204;2024-03-02T06:28:37;99627.44;;;7.14;100.00
22283;BME280;11310;51.528;21.204;2024-03-02T06:31:07;99616.03;;;7.17;100.00
22283;BME280;11310;51.528;21.204;2024-03-02T06:33:36;99621.09;;;7.20;100.00
22283;BME280;11310;51.528;21.204;2024-03-02T06:36:07;99614.09;;;7.22;100.00
22283;BME280;11310;51.528;21.204;2024-03-02T06:38:39;99633.97;;;7.24;100.00
22283;BME280;11310;51.528;21.204;2024-03-02T06:41:10;99625.28;;;7.24;100.00
22283;BME280;11310;51.528;21.204;2024-03-02T06:43:39;99633.13;;;7.24;100.00
22283;BME280;11310;51.528;21.204;2024-03-02T06:46:08;99633.97;;;7.24;100.00
22283;BME280;11310;51.528;21.204;2024-03-02T06:48:37;99631.38;;;7.24;100.00
22283;BME280;11310;51.528;21.204;2024-03-02T06:51:07;99628.66;;;7.27;100.00
22283;BME280;11310;51.528;21.204;2024-03-02T06:53:36;99634.69;;;7.28;100.00
22283;BME280;11310;51.528;21.204;2024-03-02T06:56:05;99631.19;;;7.29;100.00
22283;BME280;11310;51.528;21.204;2024-03-02T06:58:35;99641.50;;;7.32;100.00
22283;BME280;11310;51.528;21.204;2024-03-02T07:01:03;99647.38;;;7.37;100.00
22283;BME280;11310;51.528;21.204;2024-03-02T07:03:32;99650.91;;;7.36;100.00
22283;BME280;11310;51.528;21.204;2024-03-02T07:06:01;99660.28;;;7.41;100.00
22283;BME280;11310;51.528;21.204;2024-03-02T07:08:31;99654.13;;;7.42;100.00
22283;BME280;11310;51.528;21.204;2024-03-02T07:11:09;99654.09;;;7.44;100.00
22283;BME280;11310;51.528;21.204;2024-03-02T07:13:38;99658.28;;;7.48;100.00
22283;BME280;11310;51.528;21.204;2024-03-02T07:16:06;99657.34;;;7.49;100.00
22283;BME280;11310;51.528;21.204;2024-03-02T07:18:55;99651.94;;;7.53;100.00
22283;BME280;11310;51.528;21.204;2024-03-02T07:21:24;99658.84;;;7.54;100.00
22283;BME280;11310;51.528;21.204;2024-03-02T07:23:57;99656.94;;;7.59;100.00
22283;BME280;11310;51.528;21.204;2024-03-02T07:26:26;99663.00;;;7.60;100.00
22283;BME280;11310;51.528;21.204;2024-03-02T07:28:58;99660.31;;;7.61;100.00
22283;BME280;11310;51.528;21.204;2024-03-02T07:31:29;99665.50;;;7.63;100.00
22283;BME280;11310;51.528;21.204;2024-03-02T07:33:58;99678.41;;;7.66;100.00
22283;BME280;11310;51.528;21.204;2024-03-02T07:36:26;99666.09;;;7.69;100.00
22283;BME280;11310;51.528;21.204;2024-03-02T07:38:57;99670.34;;;7.72;100.00
22283;BME280;11310;51.528;21.204;2024-03-02T07:41:27;99672.91;;;7.73;100.00
22283;BME280;11310;51.528;21.204;2024-03-02T07:43:56;99681.44;;;7.77;100.00
22283;BME280;11310;51.528;21.204;2024-03-02T07:46:25;99674.38;;;7.79;100.00
22283;BME280;11310;51.528;21.204;2024-03-02T07:48:54;99676.13;;;7.80;100.00
22283;BME280;11310;51.528;21.204;2024-03-02T07:51:22;99682.88;;;7.84;100.00
22283;BME280;11310;51.528;21.204;2024-03-02T07:53:51;99684.47;;;7.88;100.00
22283;BME280;11310;51.528;21.204;2024-03-02T07:56:21;99685.28;;;7.90;100.00
22283;BME280;11310;51.528;21.204;2024-03-02T07:58:49;99692.19;;;7.91;100.00
22283;BME280;11310;51.528;21.204;2024-03-02T08:01:18;99689.47;;;7.94;100.00
22283;BME280;11310;51.528;21.204;2024-03-02T08:03:47;99691.94;;;7.97;100.00
22283;BME280;11310;51.528;21.204;2024-03-02T08:06:20;99697.16;;;7.97;100.00
22283;BME280;11310;51.528;21.204;2024-03-02T08:08:50;99684.84;;;8.00;100.00
22283;BME280;11310;51.528;21.204;2024-03-02T08:11:18;99692.72;;;7.99;100.00
22283;BME280;11310;51.528;21.204;2024-03-02T08:13:49;99683.97;;;8.00;100.00
22283;BME280;11310;51.528;21.204;2024-03-02T08:16:18;99688.28;;;8.01;100.00
22283;BME280;11310;51.528;21.204;2024-03-02T08:18:48;99690.84;;;8.02;100.00
22283;BME280;11310;51.528;21.204;2024-03-02T08:21:18;99681.97;;;8.06;100.00
22283;BME280;11310;51.528;21.204;2024-03-02T08:23:48;99687.13;;;8.08;100.00
22283;BME280;11310;51.528;21.204;2024-03-02T08:26:16;99698.34;;;8.10;100.00
22283;BME280;11310;51.528;21.204;2024-03-02T08:28:52;99696.53;;;8.12;100.00
22283;BME280;11310;51.528;21.204;2024-03-02T08:31:20;99690.41;;;8.13;100.00
22283;BME280;11310;51.528;21.204;2024-03-02T08:33:48;99693.78;;;8.15;100.00
22283;BME280;11310;51.528;21.204;2024-03-02T08:36:26;99691.06;;;8.18;100.00
22283;BME280;11310;51.528;21.204;2024-03-02T08:38:59;99688.31;;;8.21;100.00
22283;BME280;11310;51.528;21.204;2024-03-02T08:41:30;99693.44;;;8.24;100.00
22283;BME280;11310;51.528;21.204;2024-03-02T08:44:00;99699.31;;;8.29;100.00
22283;BME280;11310;51.528;21.204;2024-03-02T08:46:29;99693.03;;;8.33;100.00
22283;BME280;11310;51.528;21.204;2024-03-02T08:48:59;99692.72;;;8.40;100.00
22283;BME280;11310;51.528;21.204;2024-03-02T08:51:31;99694.22;;;8.46;100.00
22283;BME280;11310;51.528;21.204;2024-03-02T08:54:00;99687.81;;;8.53;100.00
22283;BME280;11310;51.528;21.204;2024-03-02T08:56:29;99691.22;;;8.55;100.00
22283;BME280;11310;51.528;21.204;2024-03-02T08:59:00;99686.75;;;8.57;100.00
22283;BME280;11310;51.528;21.204;2024-03-02T09:01:33;99685.59;;;8.64;100.00
22283;BME280;11310;51.528;21.204;2024-03-02T09:04:02;99693.44;;;8.64;100.00
22283;BME280;11310;51.528;21.204;2024-03-02T09:06:31;99700.38;;;8.65;100.00
22283;BME280;11310;51.528;21.204;2024-03-02T09:09:00;99699.25;;;8.70;100.00
22283;BME280;11310;51.528;21.204;2024-03-02T09:11:30;99704.16;;;8.78;100.00
22283;BME280;11310;51.528;21.204;2024-03-02T09:14:02;99698.56;;;8.85;100.00
22283;BME280;11310;51.528;21.204;2024-03-02T09:16:32;99699.09;;;8.93;100.00
22283;BME280;11310;51.528;21.204;2024-03-02T09:19:03;99699.84;;;8.95;100.00
22283;BME280;11310;51.528;21.204;2024-03-02T09:21:32;99700.59;;;8.99;100.00
22283;BME280;11310;51.528;21.204;2024-03-02T09:24:02;99703.00;;;9.03;100.00
22283;BME280;11310;51.528;21.204;2024-03-02T09:26:31;99692.22;;;9.09;100.00
22283;BME280;11310;51.528;21.204;2024-03-02T09:29:02;99704.91;;;9.18;100.00
22283;BME280;11310;51.528;21.204;2024-03-02T09:31:32;99700.53;;;9.19;100.00
22283;BME280;11310;51.528;21.204;2024-03-02T09:34:01;99693.38;;;9.22;100.00
22283;BME280;11310;51.528;21.204;2024-03-02T09:36:29;99697.78;;;9.22;100.00
22283;BME280;11310;51.528;21.204;2024-03-02T09:38:58;99689.84;;;9.23;100.00
22283;BME280;11310;51.528;21.204;2024-03-02T09:41:28;99691.97;;;9.34;100.00
22283;BME280;11310;51.528;21.204;2024-03-02T09:43:58;99695.38;;;9.36;100.00
22283;BME280;11310;51.528;21.204;2024-03-02T09:46:28;99689.16;;;9.38;100.00
22283;BME280;11310;51.528;21.204;2024-03-02T09:48:57;99687.38;;;9.39;100.00
22283;BME280;11310;51.528;21.204;2024-03-02T09:51:26;99695.78;;;9.45;100.00
22283;BME280;11310;51.528;21.204;2024-03-02T09:53:58;99687.72;;;9.50;100.00
22283;BME280;11310;51.528;21.204;2024-03-02T09:56:44;99689.13;;;9.57;100.00
22283;BME280;11310;51.528;21.204;2024-03-02T09:59:14;99692.38;;;9.62;100.00
22283;BME280;11310;51.528;21.204;2024-03-02T10:01:57;99687.00;;;9.65;100.00
22283;BME280;11310;51.528;21.204;2024-03-02T10:04:27;99686.00;;;9.67;100.00
22283;BME280;11310;51.528;21.204;2024-03-02T10:07:11;99684.94;;;9.71;100.00
22283;BME280;11310;51.528;21.204;2024-03-02T10:09:40;99684.88;;;9.73;100.00
22283;BME280;11310;51.528;21.204;2024-03-02T10:12:10;99696.03;;;9.76;100.00
22283;BME280;11310;51.528;21.204;2024-03-02T10:14:40;99691.72;;;9.75;100.00
22283;BME280;11310;51.528;21.204;2024-03-02T10:17:11;99690.56;;;9.81;100.00
22283;BME280;11310;51.528;21.204;2024-03-02T10:19:49;99685.97;;;9.86;100.00
22283;BME280;11310;51.528;21.204;2024-03-02T10:22:18;99683.13;;;9.90;100.00
22283;BME280;11310;51.528;21.204;2024-03-02T10:24:46;99687.22;;;9.96;100.00
22283;BME280;11310;51.528;21.204;2024-03-02T10:27:22;99685.22;;;10.01;100.00
22283;BME280;11310;51.528;21.204;2024-03-02T10:29:52;99681.56;;;10.05;100.00
22283;BME280;11310;51.528;21.204;2024-03-02T10:32:26;99691.72;;;10.11;100.00
22283;BME280;11310;51.528;21.204;2024-03-02T10:34:55;99684.50;;;10.16;100.00
22283;BME280;11310;51.528;21.204;2024-03-02T10:37:24;99677.97;;;10.24;100.00
22283;BME280;11310;51.528;21.204;2024-03-02T10:39:55;99686.72;;;10.40;100.00
22283;BME280;11310;51.528;21.204;2024-03-02T10:42:26;99671.81;;;10.58;100.00
22283;BME280;11310;51.528;21.204;2024-03-02T10:44:56;99681.84;;;10.67;100.00
22283;BME280;11310;51.528;21.204;2024-03-02T10:47:27;99688.81;;;10.68;100.00
22283;BME280;11310;51.528;21.204;2024-03-02T10:49:59;99692.34;;;10.67;100.00
22283;BME280;11310;51.528;21.204;2024-03-02T10:52:30;99689.72;;;10.67;100.00
22283;BME280;11310;51.528;21.204;2024-03-02T10:54:59;99691.66;;;10.63;100.00
22283;BME280;11310;51.528;21.204;2024-03-02T10:57:33;99683.56;;;10.68;100.00
22283;BME280;11310;51.528;21.204;2024-03-02T11:00:08;99676.38;;;10.71;100.00
22283;BME280;11310;51.528;21.204;2024-03-02T11:02:48;99682.03;;;10.64;100.00
22283;BME280;11310;51.528;21.204;2024-03-02T11:05:26;99687.88;;;10.69;100.00
22283;BME280;11310;51.528;21.204;2024-03-02T11:07:59;99671.72;;;10.76;100.00
22283;BME280;11310;51.528;21.204;2024-03-02T11:10:34;99672.25;;;10.83;100.00
22283;BME280;11310;51.528;21.204;2024-03-02T11:13:05;99667.00;;;10.83;100.00
22283;BME280;11310;51.528;21.204;2024-03-02T11:15:40;99677.81;;;10.77;100.00
22283;BME280;11310;51.528;21.204;2024-03-02T11:18:10;99667.63;;;10.71;100.00
22283;BME280;11310;51.528;21.204;2024-03-02T11:20:41;99665.63;;;10.76;100.00
22283;BME280;11310;51.528;21.204;2024-03-02T11:23:10;99668.84;;;10.81;100.00
22283;BME280;11310;51.528;21.204;2024-03-02T11:25:40;99665.31;;;10.82;100.00
22283;BME280;11310;51.528;21.204;2024-03-02T11:28:08;99668.78;;;10.82;100.00
22283;BME280;11310;51.528;21.204;2024-03-02T11:30:50;99668.25;;;10.76;100.00
22283;BME280;11310;51.528;21.204;2024-03-02T11:33:27;99657.75;;;10.76;100.00
22283;BME280;11310;51.528;21.204;2024-03-02T11:35:58;99664.00;;;10.73;100.00
22283;BME280;11310;51.528;21.204;2024-03-02T11:38:33;99665.81;;;10.73;100.00
22283;BME280;11310;51.528;21.204;2024-03-02T11:41:07;99663.06;;;10.74;100.00
22283;BME280;11310;51.528;21.204;2024-03-02T11:43:40;99665.81;;;10.73;100.00
22283;BME280;11310;51.528;21.204;2024-03-02T11:46:11;99659.53;;;10.75;100.00
22283;BME280;11310;51.528;21.204;2024-03-02T11:48:42;99663.94;;;10.75;100.00
22283;BME280;11310;51.528;21.204;2024-03-02T11:51:11;99667.50;;;10.74;100.00
22283;BME280;11310;51.528;21.204;2024-03-02T11:53:41;99667.50;;;10.74;100.00
22283;BME280;11310;51.528;21.204;2024-03-02T11:56:12;99659.09;;;10.67;100.00
22283;BME280;11310;51.528;21.204;2024-03-02T11:58:42;99667.81;;;10.68;100.00
22283;BME280;11310;51.528;21.204;2024-03-02T12:01:12;99666.88;;;10.69;100.00
22283;BME280;11310;51.528;21.204;2024-03-02T12:03:43;99666.69;;;10.72;100.00
22283;BME280;11310;51.528;21.204;2024-03-02T12:06:12;99667.41;;;10.75;100.00
22283;BME280;11310;51.528;21.204;2024-03-02T12:08:42;99674.09;;;10.81;100.00
22283;BME280;11310;51.528;21.204;2024-03-02T12:11:13;99668.53;;;10.87;100.00
22283;BME280;11310;51.528;21.204;2024-03-02T12:13:51;99665.44;;;10.96;100.00
22283;BME280;11310;51.528;21.204;2024-03-02T12:16:24;99660.72;;;11.02;100.00
22283;BME280;11310;51.528;21.204;2024-03-02T12:18:55;99665.53;;;11.10;100.00
22283;BME280;11310;51.528;21.204;2024-03-02T12:21:25;99664.53;;;11.12;100.00
22283;BME280;11310;51.528;21.204;2024-03-02T12:23:54;99659.28;;;11.12;100.00
22283;BME280;11310;51.528;21.204;2024-03-02T12:26:23;99656.56;;;11.14;100.00
22283;BME280;11310;51.528;21.204;2024-03-02T12:28:53;99649.44;;;11.16;100.00
22283;BME280;11310;51.528;21.204;2024-03-02T12:31:21;99654.34;;;11.22;100.00
22283;BME280;11310;51.528;21.204;2024-03-02T12:33:50;99653.34;;;11.24;100.00
22283;BME280;11310;51.528;21.204;2024-03-02T12:36:22;99650.03;;;11.21;100.00
22283;BME280;11310;51.528;21.204;2024-03-02T12:38:55;99652.00;;;11.17;100.00
22283;BME280;11310;51.528;21.204;2024-03-02T12:41:24;99653.94;;;11.14;100.00
22283;BME280;11310;51.528;21.204;2024-03-02T12:44:00;99657.41;;;11.14;100.00
22283;BME280;11310;51.528;21.204;2024-03-02T12:46:29;99663.06;;;11.07;100.00
22283;BME280;11310;51.528;21.204;2024-03-02T12:49:07;99655.03;;;11.10;100.00
22283;BME280;11310;51.528;21.204;2024-03-02T12:51:42;99663.75;;;11.10;100.00
22283;BME280;11310;51.528;21.204;2024-03-02T12:54:14;99663.06;;;11.07;100.00
22283;BME280;11310;51.528;21.204;2024-03-02T12:56:44;99648.25;;;11.06;100.00
22283;BME280;11310;51.528;21.204;2024-03-02T12:59:21;99660.78;;;11.01;100.00
22283;BME280;11310;51.528;21.204;2024-03-02T13:01:51;99653.66;;;11.03;100.00
22283;BME280;11310;51.528;21.204;2024-03-02T13:04:24;99658.91;;;11.03;100.00